sensor_id;sensor_type;location;lat;lon;timestamp;P1;durP1;ratioP1;P2;durP2;ratioP2
76622;SDS011;65513;47.564;18.948;2022-12-28T00:01:10;7.65;;;4.88;;
76622;SDS011;65513;47.564;18.948;2022-12-28T00:03:36;8.90;;;5.00;;
76622;SDS011;65513;47.564;18.948;2022-12-28T00:06:01;7.68;;;4.70;;
76622;SDS011;65513;47.564;18.948;2022-12-28T00:08:28;8.00;;;4.15;;
76622;SDS011;65513;47.564;18.948;2022-12-28T00:10:58;9.65;;;4.90;;
76622;SDS011;65513;47.564;18.948;2022-12-28T00:13:25;10.75;;;4.82;;
76622;SDS011;65513;47.564;18.948;2022-12-28T00:15:51;7.95;;;4.93;;
76622;SDS011;65513;47.564;18.948;2022-12-28T00:18:16;7.25;;;4.90;;
76622;SDS011;65513;47.564;18.948;2022-12-28T00:20:41;8.38;;;5.32;;
76622;SDS011;65513;47.564;18.948;2022-12-28T00:23:07;9.60;;;4.85;;
76622;SDS011;65513;47.564;18.948;2022-12-28T00:25:35;9.52;;;5.32;;
76622;SDS011;65513;47.564;18.948;2022-12-28T00:28:01;8.32;;;5.40;;
76622;SDS011;65513;47.564;18.948;2022-12-28T00:30:26;12.25;;;5.97;;
76622;SDS011;65513;47.564;18.948;2022-12-28T00:32:51;7.22;;;5.07;;
76622;SDS011;65513;47.564;18.948;2022-12-28T00:35:17;11.27;;;5.72;;
76622;SDS011;65513;47.564;18.948;2022-12-28T00:37:42;8.88;;;6.22;;
76622;SDS011;65513;47.564;18.948;2022-12-28T00:40:08;8.32;;;5.10;;
76622;SDS011;65513;47.564;18.948;2022-12-28T00:42:34;12.23;;;6.20;;
76622;SDS011;65513;47.564;18.948;2022-12-28T00:44:59;8.80;;;5.32;;
76622;SDS011;65513;47.564;18.948;2022-12-28T00:47:24;8.32;;;5.57;;
76622;SDS011;65513;47.564;18.948;2022-12-28T00:49:50;10.15;;;4.93;;
76622;SDS011;65513;47.564;18.948;2022-12-28T00:52:15;9.95;;;5.70;;
76622;SDS011;65513;47.564;18.948;2022-12-28T00:54:41;6.90;;;4.57;;
76622;SDS011;65513;47.564;18.948;2022-12-28T00:57:06;9.98;;;5.53;;
76622;SDS011;65513;47.564;18.948;2022-12-28T00:59:31;8.50;;;4.82;;
76622;SDS011;65513;47.564;18.948;2022-12-28T01:01:57;9.30;;;5.13;;
76622;SDS011;65513;47.564;18.948;2022-12-28T01:04:22;9.20;;;5.63;;
76622;SDS011;65513;47.564;18.948;2022-12-28T01:06:48;7.22;;;4.85;;
76622;SDS011;65513;47.564;18.948;2022-12-28T01:09:13;8.15;;;4.95;;
76622;SDS011;65513;47.564;18.948;2022-12-28T01:11:38;9.65;;;5.57;;
76622;SDS011;65513;47.564;18.948;2022-12-28T01:14:04;9.70;;;5.30;;
76622;SDS011;65513;47.564;18.948;2022-12-28T01:16:30;8.07;;;5.03;;
76622;SDS011;65513;47.564;18.948;2022-12-28T01:19:01;14.02;;;5.90;;
76622;SDS011;65513;47.564;18.948;2022-12-28T01:21:37;10.25;;;5.32;;
76622;SDS011;65513;47.564;18.948;2022-12-28T01:24:03;7.15;;;4.63;;
76622;SDS011;65513;47.564;18.948;2022-12-28T01:26:31;8.13;;;4.95;;
76622;SDS011;65513;47.564;18.948;2022-12-28T01:28:57;8.40;;;5.05;;
76622;SDS011;65513;47.564;18.948;2022-12-28T01:31:25;9.55;;;5.50;;
76622;SDS011;65513;47.564;18.948;2022-12-28T01:33:51;9.10;;;4.90;;
76622;SDS011;65513;47.564;18.948;2022-12-28T01:36:19;10.15;;;5.60;;
76622;SDS011;65513;47.564;18.948;2022-12-28T01:38:47;11.82;;;6.60;;
76622;SDS011;65513;47.564;18.948;2022-12-28T01:41:17;12.13;;;5.93;;
76622;SDS011;65513;47.564;18.948;2022-12-28T01:43:45;10.77;;;5.20;;
76622;SDS011;65513;47.564;18.948;2022-12-28T01:49:09;8.65;;;5.70;;
76622;SDS011;65513;47.564;18.948;2022-12-28T01:56:37;8.18;;;5.07;;
76622;SDS011;65513;47.564;18.948;2022-12-28T01:59:03;8.95;;;5.97;;
76622;SDS011;65513;47.564;18.948;2022-12-28T02:01:28;7.97;;;6.05;;
76622;SDS011;65513;47.564;18.948;2022-12-28T02:03:54;7.28;;;5.10;;
76622;SDS011;65513;47.564;18.948;2022-12-28T02:06:19;9.18;;;5.78;;
76622;SDS011;65513;47.564;18.948;2022-12-28T02:08:59;8.20;;;5.05;;
76622;SDS011;65513;47.564;18.948;2022-12-28T02:11:27;8.55;;;6.00;;
76622;SDS011;65513;47.564;18.948;2022-12-28T02:13:54;7.97;;;5.43;;
76622;SDS011;65513;47.564;18.948;2022-12-28T02:16:21;8.48;;;5.20;;
76622;SDS011;65513;47.564;18.948;2022-12-28T02:18:46;9.68;;;5.65;;
76622;SDS011;65513;47.564;18.948;2022-12-28T02:24:19;8.52;;;4.88;;
76622;SDS011;65513;47.564;18.948;2022-12-28T02:26:50;7.53;;;5.13;;
76622;SDS011;65513;47.564;18.948;2022-12-28T02:37:22;7.35;;;5.45;;
76622;SDS011;65513;47.564;18.948;2022-12-28T02:39:52;6.88;;;4.95;;
76622;SDS011;65513;47.564;18.948;2022-12-28T02:42:22;11.77;;;5.28;;
76622;SDS011;65513;47.564;18.948;2022-12-28T02:44:49;6.55;;;4.55;;
76622;SDS011;65513;47.564;18.948;2022-12-28T02:47:33;8.48;;;6.03;;
76622;SDS011;65513;47.564;18.948;2022-12-28T02:50:17;9.90;;;5.90;;
76622;SDS011;65513;47.564;18.948;2022-12-28T02:58:19;10.40;;;5.85;;
76622;SDS011;65513;47.564;18.948;2022-12-28T03:01:04;10.88;;;5.88;;
76622;SDS011;65513;47.564;18.948;2022-12-28T03:09:32;11.68;;;5.50;;
76622;SDS011;65513;47.564;18.948;2022-12-28T03:12:22;17.17;;;6.53;;
76622;SDS011;65513;47.564;18.948;2022-12-28T03:14:52;9.35;;;5.88;;
76622;SDS011;65513;47.564;18.948;2022-12-28T03:17:27;10.10;;;4.80;;
76622;SDS011;65513;47.564;18.948;2022-12-28T03:20:22;10.70;;;5.53;;
76622;SDS011;65513;47.564;18.948;2022-12-28T03:23:08;8.68;;;6.28;;
76622;SDS011;65513;47.564;18.948;2022-12-28T03:25:56;6.25;;;4.85;;
76622;SDS011;65513;47.564;18.948;2022-12-28T03:28:43;8.55;;;5.07;;
76622;SDS011;65513;47.564;18.948;2022-12-28T03:31:29;9.23;;;5.95;;
76622;SDS011;65513;47.564;18.948;2022-12-28T03:33:56;7.45;;;5.57;;
76622;SDS011;65513;47.564;18.948;2022-12-28T03:45:25;7.88;;;5.35;;
76622;SDS011;65513;47.564;18.948;2022-12-28T03:47:58;8.77;;;5.72;;
76622;SDS011;65513;47.564;18.948;2022-12-28T03:50:26;7.45;;;4.90;;
76622;SDS011;65513;47.564;18.948;2022-12-28T03:52:53;9.63;;;5.93;;
76622;SDS011;65513;47.564;18.948;2022-12-28T03:55:18;6.28;;;4.63;;
76622;SDS011;65513;47.564;18.948;2022-12-28T03:57:44;7.88;;;5.55;;
76622;SDS011;65513;47.564;18.948;2022-12-28T04:00:09;7.03;;;4.97;;
76622;SDS011;65513;47.564;18.948;2022-12-28T04:02:36;7.43;;;5.10;;
76622;SDS011;65513;47.564;18.948;2022-12-28T04:05:02;7.15;;;5.00;;
76622;SDS011;65513;47.564;18.948;2022-12-28T04:07:28;9.07;;;5.70;;
76622;SDS011;65513;47.564;18.948;2022-12-28T04:09:54;8.88;;;5.53;;
76622;SDS011;65513;47.564;18.948;2022-12-28T04:12:19;11.65;;;6.72;;
76622;SDS011;65513;47.564;18.948;2022-12-28T04:14:45;9.73;;;5.85;;
76622;SDS011;65513;47.564;18.948;2022-12-28T04:17:10;6.93;;;5.45;;
76622;SDS011;65513;47.564;18.948;2022-12-28T04:19:35;10.52;;;6.22;;
76622;SDS011;65513;47.564;18.948;2022-12-28T04:22:01;9.05;;;5.97;;
76622;SDS011;65513;47.564;18.948;2022-12-28T04:24:26;6.53;;;5.10;;
76622;SDS011;65513;47.564;18.948;2022-12-28T04:26:52;9.85;;;5.72;;
76622;SDS011;65513;47.564;18.948;2022-12-28T04:29:17;9.60;;;5.57;;
76622;SDS011;65513;47.564;18.948;2022-12-28T04:31:42;8.45;;;5.95;;
76622;SDS011;65513;47.564;18.948;2022-12-28T04:34:08;15.20;;;7.10;;
76622;SDS011;65513;47.564;18.948;2022-12-28T04:36:33;9.13;;;5.22;;
76622;SDS011;65513;47.564;18.948;2022-12-28T04:38:59;7.72;;;5.68;;
76622;SDS011;65513;47.564;18.948;2022-12-28T04:41:25;7.63;;;6.03;;
76622;SDS011;65513;47.564;18.948;2022-12-28T04:43:52;8.73;;;5.55;;
76622;SDS011;65513;47.564;18.948;2022-12-28T04:46:18;10.07;;;5.72;;
76622;SDS011;65513;47.564;18.948;2022-12-28T04:48:44;8.88;;;5.82;;
76622;SDS011;65513;47.564;18.948;2022-12-28T04:51:14;8.50;;;5.22;;
76622;SDS011;65513;47.564;18.948;2022-12-28T04:53:42;8.20;;;5.47;;
76622;SDS011;65513;47.564;18.948;2022-12-28T04:56:08;11.15;;;5.57;;
76622;SDS011;65513;47.564;18.948;2022-12-28T04:58:35;8.10;;;6.07;;
76622;SDS011;65513;47.564;18.948;2022-12-28T05:01:04;8.10;;;5.63;;
76622;SDS011;65513;47.564;18.948;2022-12-28T05:03:32;11.27;;;6.43;;
76622;SDS011;65513;47.564;18.948;2022-12-28T05:06:05;8.65;;;6.10;;
76622;SDS011;65513;47.564;18.948;2022-12-28T05:08:33;8.35;;;5.68;;
76622;SDS011;65513;47.564;18.948;2022-12-28T05:11:03;9.13;;;6.10;;
76622;SDS011;65513;47.564;18.948;2022-12-28T05:13:30;9.38;;;5.72;;
76622;SDS011;65513;47.564;18.948;2022-12-28T05:16:00;8.57;;;5.82;;
76622;SDS011;65513;47.564;18.948;2022-12-28T05:18:26;10.70;;;5.75;;
76622;SDS011;65513;47.564;18.948;2022-12-28T05:21:05;8.15;;;5.68;;
76622;SDS011;65513;47.564;18.948;2022-12-28T05:23:33;9.07;;;5.95;;
76622;SDS011;65513;47.564;18.948;2022-12-28T05:26:01;9.48;;;5.97;;
76622;SDS011;65513;47.564;18.948;2022-12-28T05:28:26;9.38;;;5.53;;
76622;SDS011;65513;47.564;18.948;2022-12-28T05:30:52;11.15;;;6.65;;
76622;SDS011;65513;47.564;18.948;2022-12-28T05:33:23;8.43;;;5.22;;
76622;SDS011;65513;47.564;18.948;2022-12-28T05:35:48;15.25;;;7.10;;
76622;SDS011;65513;47.564;18.948;2022-12-28T05:38:14;7.60;;;5.47;;
76622;SDS011;65513;47.564;18.948;2022-12-28T05:40:39;13.20;;;6.15;;
76622;SDS011;65513;47.564;18.948;2022-12-28T05:43:05;7.72;;;5.72;;
76622;SDS011;65513;47.564;18.948;2022-12-28T05:45:30;10.73;;;6.65;;
76622;SDS011;65513;47.564;18.948;2022-12-28T05:47:55;11.02;;;7.03;;
76622;SDS011;65513;47.564;18.948;2022-12-28T05:50:21;9.43;;;5.88;;
76622;SDS011;65513;47.564;18.948;2022-12-28T05:52:47;10.13;;;6.97;;
76622;SDS011;65513;47.564;18.948;2022-12-28T05:55:12;9.35;;;5.90;;
76622;SDS011;65513;47.564;18.948;2022-12-28T05:57:37;9.00;;;6.80;;
76622;SDS011;65513;47.564;18.948;2022-12-28T06:00:03;12.93;;;7.40;;
76622;SDS011;65513;47.564;18.948;2022-12-28T06:02:29;10.25;;;6.93;;
76622;SDS011;65513;47.564;18.948;2022-12-28T06:04:54;10.77;;;7.13;;
76622;SDS011;65513;47.564;18.948;2022-12-28T06:07:20;11.20;;;6.32;;
76622;SDS011;65513;47.564;18.948;2022-12-28T06:09:46;10.93;;;6.80;;
76622;SDS011;65513;47.564;18.948;2022-12-28T06:12:12;10.77;;;7.13;;
76622;SDS011;65513;47.564;18.948;2022-12-28T06:14:37;13.50;;;6.85;;
76622;SDS011;65513;47.564;18.948;2022-12-28T06:17:03;10.93;;;6.53;;
76622;SDS011;65513;47.564;18.948;2022-12-28T06:19:28;10.70;;;7.88;;
76622;SDS011;65513;47.564;18.948;2022-12-28T06:21:53;10.15;;;6.90;;
76622;SDS011;65513;47.564;18.948;2022-12-28T06:24:19;11.23;;;7.47;;
76622;SDS011;65513;47.564;18.948;2022-12-28T06:26:44;10.82;;;6.70;;
76622;SDS011;65513;47.564;18.948;2022-12-28T06:29:10;12.25;;;6.50;;
76622;SDS011;65513;47.564;18.948;2022-12-28T06:31:37;9.75;;;6.03;;
76622;SDS011;65513;47.564;18.948;2022-12-28T06:34:05;11.32;;;6.20;;
76622;SDS011;65513;47.564;18.948;2022-12-28T06:36:35;10.63;;;6.65;;
76622;SDS011;65513;47.564;18.948;2022-12-28T06:39:02;9.57;;;6.28;;
76622;SDS011;65513;47.564;18.948;2022-12-28T06:41:30;10.07;;;6.45;;
76622;SDS011;65513;47.564;18.948;2022-12-28T06:43:55;9.45;;;6.35;;
76622;SDS011;65513;47.564;18.948;2022-12-28T06:46:23;11.15;;;6.70;;
76622;SDS011;65513;47.564;18.948;2022-12-28T06:48:49;10.50;;;6.57;;
76622;SDS011;65513;47.564;18.948;2022-12-28T06:51:19;7.85;;;5.72;;
76622;SDS011;65513;47.564;18.948;2022-12-28T06:53:48;7.80;;;6.25;;
76622;SDS011;65513;47.564;18.948;2022-12-28T06:56:16;9.77;;;5.78;;
76622;SDS011;65513;47.564;18.948;2022-12-28T06:58:42;12.23;;;7.68;;
76622;SDS011;65513;47.564;18.948;2022-12-28T07:01:08;11.18;;;8.15;;
76622;SDS011;65513;47.564;18.948;2022-12-28T07:03:36;10.10;;;6.63;;
76622;SDS011;65513;47.564;18.948;2022-12-28T07:06:02;9.35;;;7.22;;
76622;SDS011;65513;47.564;18.948;2022-12-28T07:08:29;10.35;;;6.55;;
76622;SDS011;65513;47.564;18.948;2022-12-28T07:10:55;9.52;;;6.55;;
76622;SDS011;65513;47.564;18.948;2022-12-28T07:13:49;8.95;;;6.00;;
76622;SDS011;65513;47.564;18.948;2022-12-28T07:16:21;8.77;;;6.38;;
76622;SDS011;65513;47.564;18.948;2022-12-28T07:18:52;8.73;;;6.10;;
76622;SDS011;65513;47.564;18.948;2022-12-28T07:21:36;9.63;;;6.10;;
76622;SDS011;65513;47.564;18.948;2022-12-28T07:24:15;10.02;;;6.25;;
76622;SDS011;65513;47.564;18.948;2022-12-28T07:26:40;8.35;;;5.55;;
76622;SDS011;65513;47.564;18.948;2022-12-28T07:29:06;9.82;;;7.13;;
76622;SDS011;65513;47.564;18.948;2022-12-28T07:31:37;8.75;;;5.80;;
76622;SDS011;65513;47.564;18.948;2022-12-28T07:34:03;8.50;;;5.55;;
76622;SDS011;65513;47.564;18.948;2022-12-28T07:36:30;8.52;;;5.35;;
76622;SDS011;65513;47.564;18.948;2022-12-28T08:55:30;12.68;;;7.93;;
76622;SDS011;65513;47.564;18.948;2022-12-28T08:57:56;12.32;;;7.90;;
76622;SDS011;65513;47.564;18.948;2022-12-28T09:00:21;16.25;;;10.07;;
76622;SDS011;65513;47.564;18.948;2022-12-28T09:02:47;15.38;;;10.10;;
76622;SDS011;65513;47.564;18.948;2022-12-28T09:05:12;17.85;;;11.55;;
76622;SDS011;65513;47.564;18.948;2022-12-28T09:07:38;12.98;;;9.45;;
76622;SDS011;65513;47.564;18.948;2022-12-28T09:10:03;15.90;;;9.35;;
76622;SDS011;65513;47.564;18.948;2022-12-28T09:12:29;16.90;;;10.13;;
76622;SDS011;65513;47.564;18.948;2022-12-28T09:14:54;12.27;;;8.65;;
76622;SDS011;65513;47.564;18.948;2022-12-28T09:17:20;17.33;;;10.00;;
76622;SDS011;65513;47.564;18.948;2022-12-28T09:19:45;15.07;;;9.18;;
76622;SDS011;65513;47.564;18.948;2022-12-28T09:22:11;14.90;;;9.63;;
76622;SDS011;65513;47.564;18.948;2022-12-28T09:24:36;11.18;;;8.95;;
76622;SDS011;65513;47.564;18.948;2022-12-28T09:27:01;13.35;;;9.10;;
76622;SDS011;65513;47.564;18.948;2022-12-28T09:29:27;12.52;;;8.60;;
76622;SDS011;65513;47.564;18.948;2022-12-28T09:31:52;12.32;;;8.20;;
76622;SDS011;65513;47.564;18.948;2022-12-28T09:34:18;13.57;;;7.57;;
76622;SDS011;65513;47.564;18.948;2022-12-28T09:36:43;12.25;;;7.95;;
76622;SDS011;65513;47.564;18.948;2022-12-28T09:39:13;12.68;;;8.27;;
76622;SDS011;65513;47.564;18.948;2022-12-28T09:41:59;14.02;;;6.70;;
76622;SDS011;65513;47.564;18.948;2022-12-28T09:47:24;11.73;;;6.28;;
76622;SDS011;65513;47.564;18.948;2022-12-28T09:55:31;8.32;;;6.93;;
76622;SDS011;65513;47.564;18.948;2022-12-28T09:57:58;9.73;;;7.35;;
76622;SDS011;65513;47.564;18.948;2022-12-28T10:00:37;9.70;;;7.57;;
76622;SDS011;65513;47.564;18.948;2022-12-28T10:03:19;32.90;;;16.15;;
76622;SDS011;65513;47.564;18.948;2022-12-28T10:05:46;16.60;;;10.93;;
76622;SDS011;65513;47.564;18.948;2022-12-28T10:08:14;13.40;;;9.52;;
76622;SDS011;65513;47.564;18.948;2022-12-28T10:10:42;15.65;;;8.85;;
76622;SDS011;65513;47.564;18.948;2022-12-28T10:13:19;12.70;;;8.00;;
76622;SDS011;65513;47.564;18.948;2022-12-28T10:15:46;12.68;;;8.10;;
76622;SDS011;65513;47.564;18.948;2022-12-28T10:18:13;12.80;;;7.50;;
76622;SDS011;65513;47.564;18.948;2022-12-28T10:20:39;8.48;;;6.60;;
76622;SDS011;65513;47.564;18.948;2022-12-28T10:23:08;10.98;;;7.40;;
76622;SDS011;65513;47.564;18.948;2022-12-28T10:25:38;11.75;;;6.78;;
76622;SDS011;65513;47.564;18.948;2022-12-28T10:28:05;9.07;;;6.63;;
76622;SDS011;65513;47.564;18.948;2022-12-28T10:30:32;10.73;;;7.50;;
76622;SDS011;65513;47.564;18.948;2022-12-28T10:33:10;10.55;;;7.28;;
76622;SDS011;65513;47.564;18.948;2022-12-28T10:35:41;14.00;;;7.65;;
76622;SDS011;65513;47.564;18.948;2022-12-28T10:38:32;9.10;;;7.25;;
76622;SDS011;65513;47.564;18.948;2022-12-28T10:43:28;11.90;;;7.95;;
76622;SDS011;65513;47.564;18.948;2022-12-28T10:45:57;11.63;;;7.40;;
76622;SDS011;65513;47.564;18.948;2022-12-28T10:48:26;12.85;;;7.05;;
76622;SDS011;65513;47.564;18.948;2022-12-28T10:57:16;33.65;;;18.02;;
76622;SDS011;65513;47.564;18.948;2022-12-28T10:59:43;17.02;;;10.75;;
76622;SDS011;65513;47.564;18.948;2022-12-28T11:04:51;14.20;;;9.13;;
76622;SDS011;65513;47.564;18.948;2022-12-28T11:09:51;9.25;;;6.90;;
76622;SDS011;65513;47.564;18.948;2022-12-28T11:12:25;9.60;;;7.00;;
76622;SDS011;65513;47.564;18.948;2022-12-28T11:14:53;9.05;;;6.65;;
76622;SDS011;65513;47.564;18.948;2022-12-28T11:19:50;10.43;;;7.93;;
76622;SDS011;65513;47.564;18.948;2022-12-28T11:22:21;13.15;;;9.15;;
76622;SDS011;65513;47.564;18.948;2022-12-28T11:24:49;13.65;;;8.85;;
76622;SDS011;65513;47.564;18.948;2022-12-28T11:27:16;16.02;;;9.52;;
76622;SDS011;65513;47.564;18.948;2022-12-28T11:29:47;17.25;;;10.48;;
76622;SDS011;65513;47.564;18.948;2022-12-28T11:32:16;14.90;;;8.60;;
76622;SDS011;65513;47.564;18.948;2022-12-28T11:34:49;13.10;;;8.70;;
76622;SDS011;65513;47.564;18.948;2022-12-28T11:37:17;24.30;;;13.93;;
76622;SDS011;65513;47.564;18.948;2022-12-28T11:39:49;22.30;;;14.70;;
76622;SDS011;65513;47.564;18.948;2022-12-28T11:45:13;12.90;;;8.77;;
76622;SDS011;65513;47.564;18.948;2022-12-28T11:47:40;14.90;;;9.50;;
76622;SDS011;65513;47.564;18.948;2022-12-28T11:50:39;14.00;;;8.70;;
76622;SDS011;65513;47.564;18.948;2022-12-28T11:52:57;14.93;;;8.27;;
76622;SDS011;65513;47.564;18.948;2022-12-28T11:57:49;9.38;;;6.72;;
76622;SDS011;65513;47.564;18.948;2022-12-28T12:08:01;9.93;;;6.75;;
76622;SDS011;65513;47.564;18.948;2022-12-28T12:10:36;10.75;;;7.20;;
76622;SDS011;65513;47.564;18.948;2022-12-28T12:15:51;10.02;;;6.90;;
76622;SDS011;65513;47.564;18.948;2022-12-28T12:18:24;12.30;;;7.43;;
76622;SDS011;65513;47.564;18.948;2022-12-28T12:21:07;9.75;;;7.32;;
76622;SDS011;65513;47.564;18.948;2022-12-28T12:23:41;9.45;;;7.32;;
76622;SDS011;65513;47.564;18.948;2022-12-28T12:26:17;12.65;;;6.75;;
76622;SDS011;65513;47.564;18.948;2022-12-28T12:28:52;11.25;;;7.50;;
76622;SDS011;65513;47.564;18.948;2022-12-28T12:31:33;10.05;;;7.68;;
76622;SDS011;65513;47.564;18.948;2022-12-28T12:34:09;12.77;;;8.60;;
76622;SDS011;65513;47.564;18.948;2022-12-28T12:37:00;10.60;;;7.63;;
76622;SDS011;65513;47.564;18.948;2022-12-28T12:55:45;10.70;;;7.35;;
76622;SDS011;65513;47.564;18.948;2022-12-28T13:00:46;12.27;;;8.15;;
76622;SDS011;65513;47.564;18.948;2022-12-28T13:03:43;12.73;;;7.97;;
76622;SDS011;65513;47.564;18.948;2022-12-28T13:06:11;12.85;;;9.82;;
76622;SDS011;65513;47.564;18.948;2022-12-28T13:08:53;16.15;;;12.85;;
76622;SDS011;65513;47.564;18.948;2022-12-28T13:11:23;15.20;;;10.23;;
76622;SDS011;65513;47.564;18.948;2022-12-28T13:13:50;12.13;;;9.02;;
76622;SDS011;65513;47.564;18.948;2022-12-28T13:16:19;12.05;;;9.10;;
76622;SDS011;65513;47.564;18.948;2022-12-28T13:19:00;11.77;;;9.10;;
76622;SDS011;65513;47.564;18.948;2022-12-28T13:21:28;12.60;;;8.98;;
76622;SDS011;65513;47.564;18.948;2022-12-28T13:24:03;12.13;;;8.07;;
76622;SDS011;65513;47.564;18.948;2022-12-28T13:26:41;11.60;;;8.13;;
76622;SDS011;65513;47.564;18.948;2022-12-28T13:29:07;12.70;;;7.95;;
76622;SDS011;65513;47.564;18.948;2022-12-28T13:31:35;12.27;;;7.93;;
76622;SDS011;65513;47.564;18.948;2022-12-28T13:34:14;11.48;;;8.35;;
76622;SDS011;65513;47.564;18.948;2022-12-28T13:36:50;11.48;;;7.88;;
76622;SDS011;65513;47.564;18.948;2022-12-28T13:39:26;11.65;;;7.97;;
76622;SDS011;65513;47.564;18.948;2022-12-28T13:41:53;9.52;;;7.90;;
76622;SDS011;65513;47.564;18.948;2022-12-28T13:46:53;10.93;;;7.97;;
76622;SDS011;65513;47.564;18.948;2022-12-28T13:49:42;10.95;;;7.45;;
76622;SDS011;65513;47.564;18.948;2022-12-28T13:52:18;12.55;;;8.55;;
76622;SDS011;65513;47.564;18.948;2022-12-28T13:54:48;12.15;;;8.52;;
76622;SDS011;65513;47.564;18.948;2022-12-28T13:57:17;12.30;;;8.30;;
76622;SDS011;65513;47.564;18.948;2022-12-28T13:59:45;14.20;;;10.35;;
76622;SDS011;65513;47.564;18.948;2022-12-28T14:02:15;34.20;;;19.70;;
76622;SDS011;65513;47.564;18.948;2022-12-28T14:04:44;19.30;;;11.82;;
76622;SDS011;65513;47.564;18.948;2022-12-28T14:07:12;13.30;;;8.73;;
76622;SDS011;65513;47.564;18.948;2022-12-28T14:09:40;13.32;;;9.13;;
76622;SDS011;65513;47.564;18.948;2022-12-28T14:12:06;11.40;;;8.75;;
76622;SDS011;65513;47.564;18.948;2022-12-28T14:31:36;12.52;;;8.23;;
76622;SDS011;65513;47.564;18.948;2022-12-28T14:34:03;12.90;;;8.10;;
76622;SDS011;65513;47.564;18.948;2022-12-28T14:36:34;11.63;;;8.32;;
76622;SDS011;65513;47.564;18.948;2022-12-28T14:39:14;14.90;;;8.73;;
76622;SDS011;65513;47.564;18.948;2022-12-28T14:41:50;13.07;;;8.68;;
76622;SDS011;65513;47.564;18.948;2022-12-28T14:44:26;12.50;;;8.52;;
76622;SDS011;65513;47.564;18.948;2022-12-28T14:46:55;13.00;;;8.07;;
76622;SDS011;65513;47.564;18.948;2022-12-28T14:51:56;12.25;;;7.43;;
76622;SDS011;65513;47.564;18.948;2022-12-28T14:54:50;14.50;;;8.93;;
76622;SDS011;65513;47.564;18.948;2022-12-28T15:00:22;14.50;;;8.82;;
76622;SDS011;65513;47.564;18.948;2022-12-28T15:03:16;12.13;;;8.95;;
76622;SDS011;65513;47.564;18.948;2022-12-28T15:05:47;16.95;;;9.35;;
76622;SDS011;65513;47.564;18.948;2022-12-28T15:08:18;16.42;;;9.25;;
76622;SDS011;65513;47.564;18.948;2022-12-28T15:10:45;12.85;;;8.50;;
76622;SDS011;65513;47.564;18.948;2022-12-28T15:13:14;15.10;;;9.68;;
76622;SDS011;65513;47.564;18.948;2022-12-28T15:15:40;14.10;;;9.52;;
76622;SDS011;65513;47.564;18.948;2022-12-28T15:18:06;12.85;;;9.63;;
76622;SDS011;65513;47.564;18.948;2022-12-28T15:20:31;16.55;;;9.45;;
76622;SDS011;65513;47.564;18.948;2022-12-28T15:23:00;16.60;;;10.80;;
76622;SDS011;65513;47.564;18.948;2022-12-28T15:25:25;22.92;;;13.93;;
76622;SDS011;65513;47.564;18.948;2022-12-28T15:27:52;33.88;;;19.02;;
76622;SDS011;65513;47.564;18.948;2022-12-28T15:30:18;48.88;;;25.13;;
76622;SDS011;65513;47.564;18.948;2022-12-28T15:32:45;60.10;;;31.65;;
76622;SDS011;65513;47.564;18.948;2022-12-28T15:35:10;65.30;;;34.28;;
76622;SDS011;65513;47.564;18.948;2022-12-28T15:37:36;57.45;;;30.55;;
76622;SDS011;65513;47.564;18.948;2022-12-28T15:40:04;38.60;;;20.45;;
76622;SDS011;65513;47.564;18.948;2022-12-28T15:42:30;31.10;;;18.60;;
76622;SDS011;65513;47.564;18.948;2022-12-28T15:44:57;28.88;;;16.38;;
76622;SDS011;65513;47.564;18.948;2022-12-28T15:47:22;23.83;;;14.45;;
76622;SDS011;65513;47.564;18.948;2022-12-28T15:49:48;23.80;;;13.88;;
76622;SDS011;65513;47.564;18.948;2022-12-28T15:52:13;25.25;;;13.50;;
76622;SDS011;65513;47.564;18.948;2022-12-28T15:54:39;17.17;;;11.18;;
76622;SDS011;65513;47.564;18.948;2022-12-28T15:57:04;18.17;;;10.95;;
76622;SDS011;65513;47.564;18.948;2022-12-28T15:59:29;18.60;;;11.68;;
76622;SDS011;65513;47.564;18.948;2022-12-28T16:01:55;19.48;;;11.68;;
76622;SDS011;65513;47.564;18.948;2022-12-28T16:04:21;16.15;;;10.18;;
76622;SDS011;65513;47.564;18.948;2022-12-28T16:06:46;20.27;;;11.05;;
76622;SDS011;65513;47.564;18.948;2022-12-28T16:09:12;19.98;;;9.50;;
76622;SDS011;65513;47.564;18.948;2022-12-28T16:11:38;16.73;;;10.25;;
76622;SDS011;65513;47.564;18.948;2022-12-28T16:14:05;16.65;;;10.68;;
76622;SDS011;65513;47.564;18.948;2022-12-28T16:16:34;18.08;;;11.20;;
76622;SDS011;65513;47.564;18.948;2022-12-28T16:19:06;16.40;;;11.60;;
76622;SDS011;65513;47.564;18.948;2022-12-28T16:21:33;18.88;;;10.70;;
76622;SDS011;65513;47.564;18.948;2022-12-28T16:24:00;15.50;;;10.85;;
76622;SDS011;65513;47.564;18.948;2022-12-28T16:26:29;15.20;;;9.98;;
76622;SDS011;65513;47.564;18.948;2022-12-28T16:28:54;14.77;;;9.95;;
76622;SDS011;65513;47.564;18.948;2022-12-28T16:31:24;13.77;;;10.85;;
76622;SDS011;65513;47.564;18.948;2022-12-28T16:33:55;16.38;;;11.85;;
76622;SDS011;65513;47.564;18.948;2022-12-28T16:36:23;15.45;;;12.20;;
76622;SDS011;65513;47.564;18.948;2022-12-28T16:38:49;17.08;;;10.70;;
76622;SDS011;65513;47.564;18.948;2022-12-28T16:41:15;16.50;;;11.65;;
76622;SDS011;65513;47.564;18.948;2022-12-28T16:43:42;13.32;;;9.95;;
76622;SDS011;65513;47.564;18.948;2022-12-28T16:46:08;14.50;;;10.02;;
76622;SDS011;65513;47.564;18.948;2022-12-28T16:48:34;21.23;;;11.23;;
76622;SDS011;65513;47.564;18.948;2022-12-28T16:51:02;16.52;;;11.00;;
76622;SDS011;65513;47.564;18.948;2022-12-28T16:53:28;16.98;;;11.65;;
76622;SDS011;65513;47.564;18.948;2022-12-28T16:55:57;15.18;;;10.50;;
76622;SDS011;65513;47.564;18.948;2022-12-28T16:58:25;17.00;;;11.25;;
76622;SDS011;65513;47.564;18.948;2022-12-28T17:00:51;20.95;;;12.65;;
76622;SDS011;65513;47.564;18.948;2022-12-28T17:03:16;18.02;;;11.93;;
76622;SDS011;65513;47.564;18.948;2022-12-28T17:05:41;20.50;;;12.40;;
76622;SDS011;65513;47.564;18.948;2022-12-28T17:08:08;21.23;;;14.20;;
76622;SDS011;65513;47.564;18.948;2022-12-28T17:10:33;25.42;;;13.48;;
76622;SDS011;65513;47.564;18.948;2022-12-28T17:12:59;28.67;;;20.33;;
76622;SDS011;65513;47.564;18.948;2022-12-28T17:15:24;42.42;;;32.88;;
76622;SDS011;65513;47.564;18.948;2022-12-28T17:17:51;34.13;;;26.45;;
76622;SDS011;65513;47.564;18.948;2022-12-28T17:20:16;26.85;;;21.48;;
76622;SDS011;65513;47.564;18.948;2022-12-28T17:22:42;25.00;;;17.08;;
76622;SDS011;65513;47.564;18.948;2022-12-28T17:25:07;16.30;;;13.43;;
76622;SDS011;65513;47.564;18.948;2022-12-28T17:27:33;17.38;;;14.25;;
76622;SDS011;65513;47.564;18.948;2022-12-28T17:29:59;17.08;;;13.15;;
76622;SDS011;65513;47.564;18.948;2022-12-28T17:32:24;21.92;;;15.32;;
76622;SDS011;65513;47.564;18.948;2022-12-28T17:34:51;19.42;;;13.40;;
76622;SDS011;65513;47.564;18.948;2022-12-28T17:37:17;16.08;;;11.80;;
76622;SDS011;65513;47.564;18.948;2022-12-28T17:39:44;25.02;;;15.10;;
76622;SDS011;65513;47.564;18.948;2022-12-28T17:42:09;27.55;;;20.25;;
76622;SDS011;65513;47.564;18.948;2022-12-28T17:44:35;31.67;;;19.45;;
76622;SDS011;65513;47.564;18.948;2022-12-28T17:47:01;34.58;;;21.08;;
76622;SDS011;65513;47.564;18.948;2022-12-28T17:49:28;23.17;;;14.18;;
76622;SDS011;65513;47.564;18.948;2022-12-28T17:51:54;32.40;;;19.38;;
76622;SDS011;65513;47.564;18.948;2022-12-28T17:54:19;26.10;;;17.45;;